Time;durP1;ratioP1;P1;durP2;ratioP2;P2;SDS_P1;SDS_P2;PMS_P1;PMS_P2;Temp;Humidity;BMP_temperature;BMP_pressure;BME280_temperature;BME280_humidity;BME280_pressure;Samples;Min_cycle;Max_cycle;Signal;HPM_P1;HPM_P2
2021/12/08 00:00:19;;;;;;;;;;;5.10;97.70;;;5.67;97.44;98944.88;4875435;29;19924;-75
2021/12/08 00:02:47;;;;;;;;;;;5.20;97.50;;;5.67;100.00;98940.50;4874584;29;19923;-73
2021/12/08 00:05:16;;;;;;;;;;;5.10;98.20;;;5.59;100.00;98937.25;4876617;29;20009;-74
2021/12/08 00:07:45;;;;;;;;;;;5.20;97.80;;;5.62;100.00;98929.34;4890501;29;20574;-75
2021/12/08 00:10:29;;;;;;;;;;;5.20;98.10;;;5.77;100.00;98917.63;4890618;29;19934;-75
2021/12/08 00:13:02;;;;;;;;;;;5.10;98.10;;;5.87;100.00;98933.91;4887434;29;19923;-74
2021/12/08 00:15:30;;;;;;;;;;;6.70;98.60;;;5.79;100.00;98935.88;4875028;29;19974;-75
2021/12/08 00:17:57;;;;;;;;;;;5.10;98.40;;;5.79;100.00;98941.94;4890710;29;20031;-75
2021/12/08 00:20:30;;;;;;;;;;;5.10;98.50;;;5.73;100.00;98954.31;4875387;29;19949;-73
2021/12/08 00:22:57;;;;;;;;;;;5.20;98.40;;;5.73;100.00;98954.31;4874557;29;19930;-75
2021/12/08 00:25:24;;;;;;;;;;;7.30;99.10;;;5.68;100.00;98955.25;4901074;29;19923;-75
2021/12/08 00:27:51;;;;;;;;;;;5.50;98.60;;;5.78;100.00;98963.72;4893621;29;19923;-75
2021/12/08 00:30:18;;;;;;;;;;;5.10;98.60;;;5.80;100.00;98961.06;4894075;29;19952;-75
2021/12/08 00:32:45;;;;;;;;;;;6.10;98.70;;;5.59;100.00;98963.34;4893080;29;19923;-75
2021/12/08 00:35:13;;;;;;;;;;;7.00;99.40;;;5.62;100.00;98971.09;4893865;29;19924;-76
2021/12/08 00:37:40;;;;;;;;;;;7.80;99.30;;;5.59;100.00;98963.34;4893889;29;20505;-76
2021/12/08 00:40:11;;;;;;;;;;;5.00;98.50;;;5.58;100.00;98959.03;4893334;29;20345;-75
2021/12/08 00:42:38;;;;;;;;;;;5.20;99.20;;;5.57;100.00;98957.31;4877430;29;19948;-75
2021/12/08 00:45:07;;;;;;;;;;;5.20;99.00;;;5.61;100.00;98956.34;4894909;29;19939;-75
2021/12/08 00:47:34;;;;;;;;;;;4.60;99.00;;;5.56;100.00;98960.84;4894809;29;20303;-74
2021/12/08 00:50:03;;;;;;;;;;;6.20;99.70;;;5.60;100.00;98952.03;4894437;29;19929;-73
2021/12/08 00:52:31;;;;;;;;;;;5.80;99.90;;;5.50;100.00;98953.16;4892715;29;19937;-75
2021/12/08 00:54:59;;;;;;;;;;;5.10;99.90;;;5.54;100.00;98960.88;4893375;29;19933;-75
2021/12/08 00:57:26;;;;;;;;;;;6.50;99.90;;;5.53;100.00;98960.88;4893249;29;20297;-75
2021/12/08 00:59:53;;;;;;;;;;;5.00;99.90;;;5.38;100.00;98955.16;4877331;29;19928;-74
2021/12/08 01:02:25;;;;;;;;;;;5.70;99.90;;;5.38;100.00;98969.97;4892399;29;20065;-76
2021/12/08 01:04:52;;;;;;;;;;;5.10;99.90;;;5.32;100.00;98970.97;4892934;29;20380;-75
2021/12/08 01:07:19;;;;;;;;;;;5.10;99.90;;;5.42;100.00;98975.97;4894319;29;19927;-76
2021/12/08 01:09:47;;;;;;;;;;;5.00;99.90;;;5.46;100.00;98982.81;4892964;29;19927;-75
2021/12/08 01:12:14;;;;;;;;;;;5.00;99.90;;;5.49;100.00;98980.13;4893805;29;19946;-74
2021/12/08 01:14:41;;;;;;;;;;;7.30;99.90;;;5.47;100.00;98979.31;4892979;29;19923;-73
2021/12/08 01:17:09;;;;;;;;;;;6.50;99.90;;;5.51;100.00;98983.56;4908477;29;19928;-74
2021/12/08 01:19:36;;;;;;;;;;;6.00;99.90;;;5.45;100.00;98997.59;4894259;29;19924;-75
2021/12/08 01:22:03;;;;;;;;;;;5.10;99.90;;;5.54;100.00;99001.72;4892801;29;19927;-75
2021/12/08 01:24:31;;;;;;;;;;;6.40;99.90;;;5.37;100.00;98997.78;4891263;29;19930;-74
2021/12/08 01:26:58;;;;;;;;;;;6.90;99.90;;;5.29;100.00;98996.28;4892886;29;19927;-74
2021/12/08 01:29:25;;;;;;;;;;;5.00;99.90;;;5.35;100.00;99003.97;4892664;29;20569;-74
2021/12/08 01:31:52;;;;;;;;;;;7.10;99.90;;;5.31;100.00;99000.56;4893826;29;20304;-74
2021/12/08 01:34:19;;;;;;;;;;;7.20;99.90;;;5.27;100.00;99001.53;4873240;29;19938;-73
2021/12/08 01:36:46;;;;;;;;;;;4.90;99.90;;;5.30;100.00;99000.59;4889399;29;19935;-73
2021/12/08 01:39:13;;;;;;;;;;;5.80;99.90;;;5.29;100.00;99004.97;4889147;29;19927;-74
2021/12/08 01:41:40;;;;;;;;;;;5.00;99.90;;;5.32;100.00;99002.28;4858303;29;20396;-74
2021/12/08 01:46:53;;;;;;;;;;;4.90;99.90;;;5.15;100.00;98994.88;4874052;29;20696;-74
2021/12/08 01:49:21;;;;;;;;;;;6.50;99.90;;;5.12;100.00;98987.09;4858211;29;19931;-74
2021/12/08 01:51:49;;;;;;;;;;;5.90;99.90;;;5.13;100.00;98990.59;4865112;29;19948;-74
2021/12/08 01:54:16;;;;;;;;;;;5.80;99.90;;;5.00;100.00;98980.44;4882176;29;20277;-73
2021/12/08 01:56:43;;;;;;;;;;;4.80;99.90;;;5.09;100.00;98977.63;4892629;29;20005;-74
2021/12/08 01:59:10;;;;;;;;;;;5.00;99.90;;;5.10;100.00;98973.25;4892064;29;19946;-74
2021/12/08 02:01:40;;;;;;;;;;;4.80;99.90;;;5.02;100.00;98963.00;4893591;29;19923;-74
2021/12/08 02:04:07;;;;;;;;;;;4.80;99.90;;;5.02;100.00;98962.16;4892930;29;20584;-74
2021/12/08 02:06:43;;;;;;;;;;;4.80;99.90;;;5.05;100.00;98962.94;4892528;29;19934;-74
2021/12/08 02:09:14;;;;;;;;;;;4.70;99.90;;;5.04;100.00;98957.78;4890171;29;19923;-74
2021/12/08 02:11:45;;;;;;;;;;;6.70;99.90;;;5.05;100.00;98954.28;4892300;29;19930;-73
2021/12/08 02:14:14;;;;;;;;;;;5.50;99.90;;;5.10;100.00;98950.66;4892023;29;19930;-71
2021/12/08 02:16:49;;;;;;;;;;;6.50;99.90;;;5.01;100.00;98952.63;4892474;29;19923;-73
2021/12/08 02:19:16;;;;;;;;;;;4.70;99.90;;;5.03;100.00;98943.03;4892875;29;20415;-74
2021/12/08 02:21:43;;;;;;;;;;;4.70;99.90;;;5.13;100.00;98936.66;4892011;29;19931;-73
2021/12/08 02:24:13;;;;;;;;;;;6.30;99.90;;;5.14;100.00;98943.59;4891433;29;19927;-74
2021/12/08 02:26:43;;;;;;;;;;;4.70;99.90;;;5.11;100.00;98931.50;4893601;29;20558;-73
2021/12/08 02:29:17;;;;;;;;;;;5.50;99.90;;;5.05;100.00;98933.41;4892320;29;20390;-74
2021/12/08 02:31:56;;;;;;;;;;;4.70;99.90;;;5.13;100.00;98918.41;4893297;29;19966;-73
2021/12/08 02:48:19;;;;;;;;;;;5.60;99.90;;;5.11;100.00;98908.03;4895762;29;19952;-74
2021/12/08 02:50:46;;;;;;;;;;;4.60;99.90;;;5.26;100.00;98913.78;4895598;29;20381;-74
2021/12/08 02:53:15;;;;;;;;;;;6.60;99.90;;;5.18;100.00;98920.91;4894687;29;19931;-74
2021/12/08 02:55:43;;;;;;;;;;;4.70;99.90;;;5.18;100.00;98929.63;4895781;29;19931;-74
2021/12/08 02:58:11;;;;;;;;;;;4.90;99.90;;;5.23;100.00;98937.31;4895403;29;19934;-73
2021/12/08 03:01:08;;;;;;;;;;;4.70;99.90;;;5.31;100.00;98940.59;4896596;29;19932;-74
2021/12/08 03:03:36;;;;;;;;;;;4.80;99.90;;;5.34;100.00;98937.06;4882178;29;20018;-74
2021/12/08 03:06:06;;;;;;;;;;;5.80;99.90;;;5.26;100.00;98934.63;4894802;29;19934;-74
2021/12/08 03:08:33;;;;;;;;;;;4.90;99.90;;;5.35;100.00;98936.16;4895204;29;20033;-73
2021/12/08 03:11:00;;;;;;;;;;;6.80;99.90;;;5.39;100.00;98933.44;4895688;29;20281;-74
2021/12/08 03:13:32;;;;;;;;;;;6.00;99.90;;;5.44;100.00;98941.13;4894562;29;19930;-74
2021/12/08 03:16:00;;;;;;;;;;;4.80;99.90;;;5.39;100.00;98945.59;4896758;29;20014;-74
2021/12/08 03:18:35;;;;;;;;;;;6.10;99.90;;;5.33;100.00;98948.38;4895173;29;19927;-73
2021/12/08 03:21:05;;;;;;;;;;;4.90;99.90;;;5.36;100.00;98941.31;4895372;29;19923;-74
2021/12/08 03:23:44;;;;;;;;;;;5.70;99.90;;;5.41;100.00;98940.34;4894334;29;19927;-74
2021/12/08 03:26:11;;;;;;;;;;;5.10;99.90;;;5.44;100.00;98932.44;4895567;29;19923;-74
2021/12/08 03:28:45;;;;;;;;;;;4.90;99.90;;;5.38;100.00;98931.69;4896033;29;20588;-74
2021/12/08 03:31:17;;;;;;;;;;;4.90;99.90;;;5.34;100.00;98939.66;4896414;29;19927;-74
2021/12/08 03:33:45;;;;;;;;;;;6.70;99.90;;;5.42;100.00;98942.91;4894245;29;19952;-74
2021/12/08 03:36:12;;;;;;;;;;;4.90;99.90;;;5.48;100.00;98945.38;4896256;29;19927;-73
2021/12/08 03:38:40;;;;;;;;;;;6.20;99.90;;;5.49;100.00;98936.66;4882079;29;20403;-74
2021/12/08 03:41:08;;;;;;;;;;;4.90;99.90;;;5.55;100.00;98946.06;4872894;29;20400;-74
2021/12/08 03:43:35;;;;;;;;;;;6.30;99.90;;;5.49;100.00;98938.38;4858600;29;19928;-74
2021/12/08 03:46:04;;;;;;;;;;;4.90;99.90;;;5.49;100.00;98946.22;4859194;29;19927;-74
2021/12/08 03:48:42;;;;;;;;;;;4.90;99.90;;;5.48;100.00;98952.34;4876226;29;19931;-73
2021/12/08 03:51:10;;;;;;;;;;;4.90;99.90;;;5.46;100.00;98939.31;4875860;29;19927;-74
2021/12/08 03:53:37;;;;;;;;;;;4.90;99.90;;;5.47;100.00;98946.28;4859507;29;19930;-74
2021/12/08 03:56:05;;;;;;;;;;;4.90;99.90;;;5.44;100.00;98945.50;4891453;29;20455;-74
2021/12/08 03:58:32;;;;;;;;;;;5.00;99.90;;;5.39;100.00;98953.44;4899909;29;19923;-74
2021/12/08 04:01:00;;;;;;;;;;;6.30;99.90;;;5.38;100.00;98957.78;4895997;29;19923;-73
2021/12/08 04:03:30;;;;;;;;;;;6.00;99.90;;;5.40;100.00;98952.53;4878607;29;19923;-73
2021/12/08 04:06:02;;;;;;;;;;;4.90;99.90;;;5.44;100.00;98954.16;4893500;29;19927;-74
2021/12/08 04:08:44;;;;;;;;;;;6.10;99.90;;;5.47;100.00;98961.94;4893936;29;20010;-73
2021/12/08 04:11:12;;;;;;;;;;;4.90;99.90;;;5.47;100.00;98956.72;4880433;29;20381;-74
2021/12/08 04:13:44;;;;;;;;;;;4.90;99.90;;;5.54;100.00;98960.00;4893146;29;20042;-74
2021/12/08 04:16:14;;;;;;;;;;;5.70;99.90;;;5.53;100.00;98964.38;4893948;29;20454;-74
2021/12/08 04:18:42;;;;;;;;;;;5.70;99.90;;;5.48;100.00;98965.38;4893226;29;19927;-73
2021/12/08 04:21:10;;;;;;;;;;;4.90;99.90;;;5.50;100.00;98972.28;4894377;29;19923;-74
2021/12/08 04:23:40;;;;;;;;;;;5.80;99.90;;;5.51;100.00;98965.28;4893380;29;19924;-74
2021/12/08 04:26:31;;;;;;;;;;;5.70;99.90;;;5.50;100.00;98964.44;4894252;29;19923;-74
2021/12/08 04:28:58;;;;;;;;;;;5.80;99.90;;;5.51;100.00;98965.28;4893711;29;19935;-74
2021/12/08 04:31:32;;;;;;;;;;;5.00;99.90;;;5.56;100.00;98960.84;4893863;29;20272;-74
2021/12/08 04:34:04;;;;;;;;;;;5.00;99.90;;;5.58;100.00;98966.88;4893099;29;20535;-73
2021/12/08 04:36:41;;;;;;;;;;;6.60;99.90;;;5.51;100.00;98957.47;4894821;29;19927;-74
2021/12/08 04:39:13;;;;;;;;;;;5.00;99.90;;;5.52;100.00;98965.25;4894886;29;19934;-74
2021/12/08 04:41:46;;;;;;;;;;;5.00;99.90;;;5.52;100.00;98965.25;4893557;29;19931;-74
2021/12/08 05:06:25;;;;;;;;;;;5.10;99.90;;;5.46;100.00;98946.31;4893502;29;19924;-74
2021/12/08 05:08:55;;;;;;;;;;;6.00;99.90;;;5.50;100.00;98947.94;4894372;29;19928;-74
2021/12/08 05:11:29;;;;;;;;;;;3.90;99.90;;;5.48;100.00;98947.13;4878392;29;19927;-74
2021/12/08 05:14:08;;;;;;;;;;;4.90;99.90;;;5.53;100.00;98953.06;4892821;29;19928;-74
2021/12/08 05:16:38;;;;;;;;;;;4.90;99.90;;;5.47;100.00;98938.44;4894874;29;19923;-73
2021/12/08 05:19:09;;;;;;;;;;;5.50;99.90;;;5.38;100.00;98929.09;4892850;29;19923;-74
2021/12/08 05:21:40;;;;;;;;;;;5.00;99.90;;;5.43;100.00;98938.56;4886574;29;19923;-74
2021/12/08 05:24:23;;;;;;;;;;;4.80;99.90;;;5.42;100.00;98931.63;4873442;29;19928;-75
2021/12/08 05:27:10;;;;;;;;;;;4.90;99.90;;;5.46;100.00;98928.03;4842490;29;19928;-75
2021/12/08 05:29:52;;;;;;;;;;;4.90;99.90;;;5.44;100.00;98932.44;4869744;29;19928;-75
2021/12/08 05:32:20;;;;;;;;;;;4.90;99.90;;;5.37;100.00;98942.19;4884317;29;19928;-74
2021/12/08 05:34:47;;;;;;;;;;;4.80;99.90;;;5.34;100.00;98942.25;4893163;29;19924;-77
2021/12/08 05:37:17;;;;;;;;;;;4.90;99.90;;;5.34;100.00;98937.06;4875709;29;19924;-74
2021/12/08 05:39:48;;;;;;;;;;;4.80;99.90;;;5.39;100.00;98948.22;4872806;29;19934;-74
2021/12/08 05:42:33;;;;;;;;;;;4.90;99.90;;;5.28;100.00;98939.78;4873611;29;19931;-74
2021/12/08 05:45:00;;;;;;;;;;;4.90;99.90;;;5.29;100.00;98937.16;4874902;29;19927;-75
2021/12/08 05:47:29;;;;;;;;;;;4.80;99.90;;;5.33;100.00;98938.78;4874908;29;19924;-74
2021/12/08 05:49:57;;;;;;;;;;;5.20;99.90;;;5.30;100.00;98951.03;4874683;29;19924;-74
2021/12/08 05:52:27;;;;;;;;;;;5.00;99.90;;;5.30;100.00;98945.81;4875533;29;19935;-75
2021/12/08 05:54:59;;;;;;;;;;;5.10;99.90;;;5.21;100.00;98929.53;4874565;29;20038;-74
2021/12/08 05:57:31;;;;;;;;;;;4.60;99.90;;;5.20;100.00;98934.78;4873996;29;19927;-74
2021/12/08 05:59:58;;;;;;;;;;;5.90;99.90;;;5.16;100.00;98944.44;4874063;29;19932;-74
2021/12/08 06:02:30;;;;;;;;;;;5.40;99.90;;;5.16;100.00;98947.06;4881044;29;20305;-74
2021/12/08 06:04:57;;;;;;;;;;;4.70;99.90;;;5.13;100.00;98938.44;4892371;29;19947;-74
2021/12/08 06:07:25;;;;;;;;;;;4.80;99.90;;;5.13;100.00;98934.06;4892857;29;19928;-74
2021/12/08 06:09:55;;;;;;;;;;;4.70;99.90;;;5.06;100.00;98924.69;4894453;29;19946;-74
2021/12/08 06:12:23;;;;;;;;;;;5.60;99.90;;;5.14;100.00;98929.72;4899275;29;19932;-74
2021/12/08 06:14:54;;;;;;;;;;;4.70;99.90;;;5.06;100.00;98940.34;4899993;29;19927;-73
2021/12/08 06:17:28;;;;;;;;;;;4.70;99.90;;;4.99;100.00;98947.44;4899152;29;19930;-75
2021/12/08 06:19:56;;;;;;;;;;;4.70;99.90;;;5.05;100.00;98957.72;4899863;29;19970;-73
2021/12/08 06:22:25;;;;;;;;;;;6.10;99.90;;;5.02;100.00;98973.44;4898969;29;19942;-74
2021/12/08 06:24:52;;;;;;;;;;;4.70;99.90;;;5.10;100.00;98976.72;4900349;29;20289;-74
2021/12/08 06:27:25;;;;;;;;;;;5.60;99.90;;;5.09;100.00;98972.41;4900026;29;20014;-75
2021/12/08 06:29:52;;;;;;;;;;;5.20;99.90;;;5.09;100.00;98968.94;4883158;29;19923;-74
2021/12/08 06:32:19;;;;;;;;;;;5.60;99.90;;;5.11;100.00;98954.97;4898773;29;20415;-74
2021/12/08 06:34:55;;;;;;;;;;;4.70;99.90;;;4.96;100.00;98939.72;4898786;29;19923;-73
2021/12/08 06:37:36;;;;;;;;;;;4.70;99.90;;;5.02;100.00;98944.75;4898550;29;20022;-74
2021/12/08 06:40:37;;;;;;;;;;;4.70;99.90;;;5.00;100.00;98930.06;4900091;29;19927;-75
2021/12/08 06:43:07;;;;;;;;;;;4.70;99.90;;;5.04;100.00;98921.28;4898672;29;19923;-75
2021/12/08 06:45:40;;;;;;;;;;;4.80;99.90;;;5.02;100.00;98936.94;4899054;29;20026;-73
2021/12/08 06:48:11;;;;;;;;;;;4.80;99.90;;;5.05;100.00;98941.25;4883683;29;19931;-74
2021/12/08 06:50:46;;;;;;;;;;;4.70;99.90;;;5.04;100.00;98924.72;4900178;29;20690;-76
2021/12/08 06:53:13;;;;;;;;;;;4.80;99.90;;;4.98;100.00;98932.72;4883813;29;19946;-76
2021/12/08 06:55:49;;;;;;;;;;;6.40;99.90;;;5.02;100.00;98936.09;4899642;29;20293;-75
2021/12/08 06:58:20;;;;;;;;;;;4.60;99.90;;;4.96;100.00;98945.75;4898663;29;19934;-76
2021/12/08 07:03:49;;;;;;;;;;;4.70;99.90;;;4.97;100.00;98976.16;4900114;29;19934;-76
2021/12/08 07:09:12;;;;;;;;;;;6.00;99.90;;;5.00;100.00;98985.66;4898677;29;19990;-75
2021/12/08 07:11:39;;;;;;;;;;;4.70;99.90;;;5.03;100.00;98977.75;4898460;29;20421;-75
2021/12/08 07:14:07;;;;;;;;;;;6.90;99.90;;;5.01;100.00;98979.53;4883295;29;20019;-76
2021/12/08 07:16:40;;;;;;;;;;;5.80;99.90;;;5.05;100.00;98983.78;4899850;29;19931;-76
2021/12/08 07:19:32;;;;;;;;;;;4.70;99.90;;;5.07;100.00;98983.75;4899781;29;19946;-76
2021/12/08 07:22:05;;;;;;;;;;;5.20;99.90;;;5.09;100.00;98989.78;4897632;29;19966;-76
2021/12/08 07:24:36;;;;;;;;;;;6.10;99.90;;;5.09;100.00;98984.59;4895340;29;20437;-75
2021/12/08 07:27:07;;;;;;;;;;;4.80;99.90;;;5.11;100.00;98986.28;4880361;29;20428;-76
2021/12/08 07:29:39;;;;;;;;;;;5.40;99.90;;;5.07;100.00;98971.59;4896716;29;19923;-74
2021/12/08 07:32:15;;;;;;;;;;;6.40;99.90;;;5.07;100.00;98974.22;4893677;29;19923;-74
2021/12/08 07:34:43;;;;;;;;;;;4.80;99.90;;;5.01;100.00;98961.28;4891344;29;19928;-75
2021/12/08 07:37:16;;;;;;;;;;;6.30;99.90;;;5.03;100.00;98954.28;4878095;29;20571;-74
2021/12/08 07:39:52;;;;;;;;;;;4.80;99.90;;;5.00;100.00;98950.94;4875943;29;19951;-74
2021/12/08 07:42:31;;;;;;;;;;;5.10;99.90;;;4.99;100.00;98950.06;4890927;29;20018;-74
2021/12/08 07:45:01;;;;;;;;;;;4.80;99.90;;;4.92;100.00;98951.09;4874328;29;19927;-73
2021/12/08 07:47:31;;;;;;;;;;;5.40;99.90;;;4.91;100.00;98955.44;4873110;29;20018;-73
2021/12/08 07:50:01;;;;;;;;;;;5.00;99.90;;;4.90;100.00;98952.88;4875265;29;20610;-74
2021/12/08 07:52:33;;;;;;;;;;;5.80;99.90;;;4.87;100.00;98946.00;4877362;29;19928;-73
2021/12/08 07:55:05;;;;;;;;;;;5.30;99.90;;;4.90;100.00;98947.66;4876809;29;20047;-73
2021/12/08 07:57:34;;;;;;;;;;;4.80;99.90;;;4.87;100.00;98950.34;4877546;29;19924;-72
2021/12/08 08:00:17;;;;;;;;;;;4.70;99.90;;;4.86;100.00;98949.50;4876587;29;19928;-72
2021/12/08 08:02:49;;;;;;;;;;;4.80;99.90;;;4.82;100.00;98960.88;4858714;29;19934;-73
2021/12/08 08:05:22;;;;;;;;;;;4.80;99.90;;;4.83;100.00;98967.78;4878279;29;19924;-74
2021/12/08 08:07:49;;;;;;;;;;;4.80;99.90;;;4.87;100.00;98968.59;4892266;29;19928;-72
2021/12/08 08:10:16;;;;;;;;;;;5.20;99.90;;;4.86;100.00;98961.66;4891199;29;19931;-74
2021/12/08 08:12:48;;;;;;;;;;;4.80;99.90;;;4.87;100.00;98958.16;4863576;29;19927;-73
2021/12/08 08:15:37;;;;;;;;;;;6.00;99.90;;;4.85;100.00;98952.13;4858475;29;19920;-74
2021/12/08 08:18:08;;;;;;;;;;;4.70;99.90;;;4.90;100.00;98960.69;4858356;29;19924;-73
2021/12/08 08:20:39;;;;;;;;;;;4.80;99.90;;;4.85;100.00;98962.56;4872234;29;19932;-72
2021/12/08 08:23:06;;;;;;;;;;;4.70;99.90;;;4.84;100.00;98972.13;4871652;29;19924;-74
2021/12/08 08:25:37;;;;;;;;;;;4.70;99.90;;;4.78;100.00;98969.66;4902673;29;19986;-73
2021/12/08 08:28:05;;;;;;;;;;;5.30;99.90;;;4.83;100.00;98980.81;4893771;29;19927;-73
2021/12/08 08:30:37;;;;;;;;;;;4.80;99.90;;;4.81;100.00;98988.69;4893603;29;19930;-74
2021/12/08 08:33:04;;;;;;;;;;;4.80;99.90;;;4.86;100.00;98978.16;4893038;29;19927;-73
2021/12/08 08:35:42;;;;;;;;;;;4.90;99.90;;;4.89;100.00;98983.31;4894998;29;19935;-73
2021/12/08 08:38:22;;;;;;;;;;;4.70;99.90;;;4.85;100.00;98980.78;4882870;29;19927;-73
2021/12/08 08:40:55;;;;;;;;;;;4.90;99.90;;;4.96;100.00;98984.88;4889173;29;20022;-73
2021/12/08 08:43:23;;;;;;;;;;;5.70;99.90;;;4.98;100.00;98979.63;4875679;29;19931;-72
2021/12/08 08:46:01;;;;;;;;;;;4.80;99.90;;;4.99;100.00;98989.16;4890192;29;19963;-73
2021/12/08 08:48:43;;;;;;;;;;;4.80;99.90;;;5.02;100.00;98988.25;4874960;29;19934;-73
2021/12/08 08:51:30;;;;;;;;;;;4.90;99.90;;;5.05;100.00;98989.00;4888979;29;19930;-72
2021/12/08 08:54:01;;;;;;;;;;;4.90;99.90;;;5.06;100.00;98988.09;4874179;29;20049;-73
2021/12/08 08:56:53;;;;;;;;;;;4.90;99.90;;;5.05;100.00;98981.19;4887722;29;19916;-74
2021/12/08 08:59:26;;;;;;;;;;;4.90;99.90;;;5.14;100.00;98985.31;4876005;29;19924;-72
2021/12/08 09:01:57;;;;;;;;;;;5.00;99.90;;;5.17;100.00;98969.63;4875971;29;19934;-73
2021/12/08 09:04:31;;;;;;;;;;;5.00;99.90;;;5.19;100.00;98969.56;4889840;29;19934;-73
2021/12/08 09:07:02;;;;;;;;;;;5.00;99.90;;;5.18;100.00;98973.06;4889881;29;19970;-73
2021/12/08 09:09:40;;;;;;;;;;;4.90;99.90;;;5.17;100.00;98982.66;4889608;29;19939;-74
2021/12/08 09:12:36;;;;;;;;;;;4.90;99.90;;;5.26;100.00;99002.44;4889732;29;19930;-73
2021/12/08 09:15:12;;;;;;;;;;;5.10;99.90;;;5.24;100.00;99014.66;4874838;29;19924;-72
2021/12/08 09:17:46;;;;;;;;;;;5.10;99.90;;;5.26;100.00;99025.91;4874698;29;19989;-71
2021/12/08 09:20:37;;;;;;;;;;;6.20;99.90;;;5.33;100.00;99032.69;4874529;29;20064;-73
2021/12/08 09:23:13;;;;;;;;;;;5.10;99.90;;;5.30;100.00;99030.16;4889925;29;19927;-74
2021/12/08 09:25:53;;;;;;;;;;;5.20;99.90;;;5.29;100.00;99033.66;4874516;29;19971;-74
2021/12/08 09:28:28;;;;;;;;;;;5.20;99.90;;;5.36;100.00;99027.38;4875373;29;19923;-72
2021/12/08 09:31:02;;;;;;;;;;;5.10;99.90;;;5.34;100.00;99020.50;4888953;29;19923;-75
2021/12/08 09:33:37;;;;;;;;;;;5.40;99.90;;;5.39;100.00;99022.13;4873248;29;20320;-73
2021/12/08 09:36:18;;;;;;;;;;;4.30;99.90;;;5.46;100.00;99033.22;4889475;29;19923;-72
2021/12/08 09:38:51;;;;;;;;;;;5.30;99.90;;;5.39;100.00;99037.78;4875532;29;19928;-74
2021/12/08 09:41:33;;;;;;;;;;;7.40;99.90;;;5.38;100.00;99022.16;4888681;29;19975;-74
2021/12/08 09:44:09;;;;;;;;;;;5.40;99.90;;;5.42;100.00;99025.53;4881462;29;19927;-73
2021/12/08 09:46:42;;;;;;;;;;;6.90;99.90;;;5.50;100.00;99027.06;4887303;29;19923;-73
2021/12/08 09:49:28;;;;;;;;;;;5.30;99.90;;;5.56;100.00;99030.41;4877382;29;19927;-73
2021/12/08 09:51:58;;;;;;;;;;;5.40;99.90;;;5.59;100.00;99023.38;4873509;29;19971;-73
2021/12/08 09:54:43;;;;;;;;;;;5.40;99.90;;;5.63;100.00;99026.78;4869618;29;20014;-74
2021/12/08 09:57:13;;;;;;;;;;;5.50;99.90;;;5.63;100.00;99019.78;4873972;29;19928;-74
2021/12/08 09:59:46;;;;;;;;;;;5.40;99.90;;;5.67;100.00;99013.56;4873296;29;19927;-74
2021/12/08 10:02:24;;;;;;;;;;;6.80;99.90;;;5.67;100.00;99003.13;4874460;29;20026;-74
2021/12/08 10:04:52;;;;;;;;;;;6.30;99.90;;;5.73;100.00;99011.72;4859667;29;19927;-76
2021/12/08 10:07:19;;;;;;;;;;;6.20;99.90;;;5.78;100.00;99007.22;4873805;29;19975;-74
2021/12/08 10:09:50;;;;;;;;;;;4.90;99.90;;;5.79;100.00;99006.34;4884377;29;19959;-76
2021/12/08 10:12:17;;;;;;;;;;;5.60;99.90;;;5.77;100.00;99005.53;4881878;29;19984;-74
2021/12/08 10:14:46;;;;;;;;;;;5.70;99.90;;;5.82;100.00;99003.63;4878628;29;19928;-76
2021/12/08 10:17:14;;;;;;;;;;;6.10;99.90;;;5.85;100.00;98997.50;4859610;29;19928;-76
2021/12/08 10:19:42;;;;;;;;;;;5.70;99.90;;;5.88;100.00;99002.63;4873790;29;19931;-76
2021/12/08 10:22:18;;;;;;;;;;;7.10;99.90;;;5.94;100.00;98986.81;4871248;29;20014;-76
2021/12/08 10:25:06;;;;;;;;;;;5.80;99.90;;;5.96;100.00;99008.50;4848023;29;19927;-76
2021/12/08 10:28:03;;;;;;;;;;;5.80;99.90;;;5.96;100.00;99005.91;4871729;29;19935;-78
2021/12/08 10:30:31;;;;;;;;;;;5.90;99.90;;;6.00;100.00;98998.81;4876031;29;20404;-76
2021/12/08 10:33:00;;;;;;;;;;;5.80;99.90;;;6.05;100.00;98997.81;4855418;29;19930;-76
2021/12/08 10:35:49;;;;;;;;;;;5.90;99.90;;;6.06;100.00;98994.31;4856764;29;19931;-77
2021/12/08 10:38:19;;;;;;;;;;;5.90;99.90;;;6.08;100.00;98992.50;4855424;29;19928;-76
2021/12/08 10:40:58;;;;;;;;;;;6.40;99.90;;;6.12;100.00;98995.06;4855545;29;19989;-76
2021/12/08 10:43:25;;;;;;;;;;;5.90;99.90;;;6.09;100.00;98988.16;4855146;29;19924;-77
2021/12/08 10:46:01;;;;;;;;;;;6.00;99.90;;;6.17;100.00;98988.81;4871064;29;19967;-78
2021/12/08 10:48:34;;;;;;;;;;;6.00;99.90;;;6.22;100.00;98983.44;4854490;29;20003;-74
2021/12/08 10:56:40;;;;;;;;;;;6.10;99.90;;;6.25;100.00;98975.53;4875179;29;20282;-73
2021/12/08 10:59:07;;;;;;;;;;;6.30;99.90;;;6.31;100.00;98980.59;4892477;29;19927;-73
2021/12/08 11:01:35;;;;;;;;;;;6.70;99.90;;;6.29;100.00;98978.91;4879321;29;20022;-73
2021/12/08 11:04:07;;;;;;;;;;;6.20;99.90;;;6.36;100.00;98977.84;4892024;29;19999;-73
2021/12/08 11:06:36;;;;;;;;;;;6.20;99.90;;;6.40;100.00;98984.69;4892150;29;19979;-74
2021/12/08 11:09:11;;;;;;;;;;;6.20;99.90;;;6.42;100.00;98982.88;4891918;29;19928;-73
2021/12/08 11:11:43;;;;;;;;;;;6.30;99.90;;;6.45;100.00;98982.78;4878884;29;20001;-73
2021/12/08 11:14:16;;;;;;;;;;;6.30;99.90;;;6.49;100.00;98975.72;4877254;29;20406;-73
2021/12/08 11:16:44;;;;;;;;;;;6.30;99.90;;;6.48;100.00;98974.00;4893221;29;20038;-73
2021/12/08 11:19:18;;;;;;;;;;;7.00;99.90;;;6.46;100.00;98971.44;4877537;29;19928;-73
2021/12/08 11:21:47;;;;;;;;;;;6.40;99.90;;;6.49;100.00;98983.56;4892234;29;20354;-74
2021/12/08 11:25:06;;;;;;;;;;;6.40;99.90;;;6.46;100.00;98979.25;4878636;29;19928;-74
2021/12/08 11:27:28;;;;;;;;;;;6.40;99.90;;;6.55;100.00;98978.13;4886543;29;19932;-73
2021/12/08 11:29:55;;;;;;;;;;;6.40;99.90;;;6.56;100.00;98979.88;4891965;29;19923;-73
2021/12/08 11:32:24;;;;;;;;;;;6.50;99.90;;;6.58;100.00;98982.41;4877675;29;19952;-73
2021/12/08 11:34:53;;;;;;;;;;;6.30;99.90;;;6.61;100.00;98977.09;4876216;29;20397;-73
2021/12/08 11:37:24;;;;;;;;;;;6.50;99.90;;;6.66;100.00;98980.44;4886525;29;19955;-73
2021/12/08 11:39:55;;;;;;;;;;;7.10;99.90;;;6.66;100.00;98978.69;4842995;29;20028;-73
2021/12/08 11:42:25;;;;;;;;;;;8.00;99.90;;;6.61;100.00;98975.34;4868402;29;19932;-73
2021/12/08 11:44:58;;;;;;;;;;;6.60;99.90;;;6.65;100.00;98974.34;4855321;29;19924;-73
2021/12/08 11:47:35;;;;;;;;;;;6.90;99.90;;;6.68;100.00;98981.25;4842386;29;19931;-73
2021/12/08 11:50:21;;;;;;;;;;;7.00;99.90;;;6.68;100.00;98973.41;4857309;29;20260;-73
2021/12/08 11:52:53;;;;;;;;;;;6.60;99.90;;;6.67;100.00;98974.31;4856942;29;19934;-76
2021/12/08 11:55:24;;;;;;;;;;;6.60;99.90;;;6.72;100.00;98975.03;4842754;29;19928;-73
2021/12/08 11:57:56;;;;;;;;;;;6.60;99.90;;;6.75;100.00;98966.25;4842256;29;20444;-73
2021/12/08 12:00:35;;;;;;;;;;;6.30;99.90;;;6.79;100.00;98973.94;4861928;29;19996;-73
2021/12/08 12:03:04;;;;;;;;;;;6.70;99.90;;;6.80;100.00;98977.41;4857320;29;19960;-74
2021/12/08 12:05:36;;;;;;;;;;;6.70;99.90;;;6.82;100.00;98972.97;4858913;29;20313;-73
2021/12/08 12:08:05;;;;;;;;;;;6.70;99.90;;;6.83;100.00;98968.63;4871925;29;19927;-73
2021/12/08 12:10:35;;;;;;;;;;;6.70;99.90;;;6.85;100.00;98972.88;4871454;29;19935;-73
2021/12/08 12:13:08;;;;;;;;;;;6.80;99.90;;;6.85;100.00;98964.19;4874508;29;19932;-73
2021/12/08 12:15:40;;;;;;;;;;;7.00;99.90;;;6.87;100.00;98960.63;4894727;29;19972;-73
2021/12/08 12:18:07;;;;;;;;;;;6.80;99.90;;;6.83;100.00;98961.63;4894455;29;20367;-73
2021/12/08 12:20:46;;;;;;;;;;;6.80;99.90;;;6.86;100.00;98958.06;4894126;29;20437;-73
2021/12/08 12:23:25;;;;;;;;;;;6.80;99.90;;;6.88;100.00;98961.47;4894739;29;20022;-73
2021/12/08 12:26:03;;;;;;;;;;;6.80;99.90;;;6.86;100.00;98961.50;4895710;29;20032;-73
2021/12/08 12:28:55;;;;;;;;;;;6.80;99.90;;;6.90;100.00;98954.44;4895442;29;20030;-73
2021/12/08 12:31:28;;;;;;;;;;;6.80;99.90;;;6.88;100.00;98951.00;4895476;29;19931;-73
2021/12/08 12:33:56;;;;;;;;;;;6.90;99.90;;;6.90;100.00;98944.84;4894698;29;19924;-74
2021/12/08 12:36:27;;;;;;;;;;;6.80;99.90;;;6.90;100.00;98952.69;4894212;29;20742;-73